createdAt,value
2018-09-01T00:02:54.670Z,100.00
2018-09-01T00:05:58.905Z,100.00
2018-09-01T00:09:09.744Z,100.00
2018-09-01T00:12:14.005Z,100.00
2018-09-01T00:15:18.212Z,100.00
2018-09-01T00:18:22.446Z,100.00
2018-09-01T00:21:26.824Z,100.00
2018-09-01T00:24:31.040Z,100.00
2018-09-01T00:27:35.261Z,100.00
2018-09-01T00:30:39.506Z,100.00
2018-09-01T00:33:43.729Z,100.00
2018-09-01T00:36:47.984Z,100.00
2018-09-01T00:39:52.501Z,100.00
2018-09-01T00:42:58.872Z,100.00
2018-09-01T00:46:03.104Z,100.00
2018-09-01T00:49:07.354Z,100.00
2018-09-01T00:52:11.585Z,100.00
2018-09-01T00:55:21.149Z,100.00
2018-09-01T00:58:25.369Z,100.00
2018-09-01T01:01:29.580Z,100.00
2018-09-01T01:04:33.961Z,100.00
2018-09-01T01:07:38.214Z,100.00
2018-09-01T01:10:42.434Z,100.00
2018-09-01T01:13:46.854Z,100.00
2018-09-01T01:16:51.045Z,100.00
2018-09-01T01:19:55.304Z,100.00
2018-09-01T01:22:59.501Z,100.00
2018-09-01T01:26:03.734Z,100.00
2018-09-01T01:29:07.997Z,100.00
2018-09-01T01:32:12.222Z,100.00
2018-09-01T01:35:16.466Z,100.00
2018-09-01T01:38:20.693Z,100.00
2018-09-01T01:41:24.938Z,100.00
2018-09-01T01:44:29.165Z,100.00
2018-09-01T01:47:38.433Z,100.00
2018-09-01T01:50:42.687Z,100.00
2018-09-01T01:53:46.905Z,100.00
2018-09-01T01:56:51.250Z,100.00
2018-09-01T01:59:55.458Z,100.00
2018-09-01T02:02:59.705Z,100.00
2018-09-01T02:06:03.912Z,100.00
2018-09-01T02:09:08.148Z,100.00
2018-09-01T02:12:12.377Z,100.00
2018-09-01T02:15:16.612Z,100.00
2018-09-01T02:18:20.845Z,100.00
2018-09-01T02:21:25.076Z,100.00
2018-09-01T02:24:29.508Z,100.00
2018-09-01T02:27:33.745Z,100.00
2018-09-01T02:30:37.946Z,100.00
2018-09-01T02:33:42.192Z,100.00
2018-09-01T02:36:46.405Z,100.00
2018-09-01T02:39:50.656Z,100.00
2018-09-01T02:42:54.877Z,100.00
2018-09-01T02:45:59.077Z,100.00
2018-09-01T02:49:03.453Z,100.00
2018-09-01T02:52:07.681Z,100.00
2018-09-01T02:55:11.924Z,100.00
2018-09-01T02:58:16.149Z,100.00
2018-09-01T03:01:25.540Z,100.00
2018-09-01T03:04:29.794Z,100.00
2018-09-01T03:07:34.022Z,100.00
2018-09-01T03:10:38.248Z,100.00
2018-09-01T03:13:42.471Z,100.00
2018-09-01T03:16:46.661Z,100.00
2018-09-01T03:19:50.893Z,100.00
2018-09-01T03:22:55.076Z,100.00
2018-09-01T03:25:59.313Z,100.00
2018-09-01T03:29:03.541Z,100.00
2018-09-01T03:32:07.778Z,100.00
2018-09-01T03:35:12.016Z,100.00
2018-09-01T03:38:16.251Z,100.00
2018-09-01T03:41:20.497Z,100.00
2018-09-01T03:44:24.716Z,100.00
2018-09-01T03:47:28.937Z,100.00
2018-09-01T03:50:33.173Z,100.00
2018-09-01T03:53:37.412Z,100.00
2018-09-01T03:56:41.640Z,100.00
2018-09-01T03:59:45.866Z,100.00
2018-09-01T04:02:50.109Z,100.00
2018-09-01T04:05:54.316Z,100.00
2018-09-01T04:08:58.547Z,100.00
2018-09-01T04:12:02.773Z,100.00
2018-09-01T04:15:07.599Z,100.00
2018-09-01T04:18:11.821Z,100.00
2018-09-01T04:21:16.053Z,100.00
2018-09-01T04:24:20.272Z,100.00
2018-09-01T04:27:24.485Z,100.00
2018-09-01T04:30:28.677Z,100.00
2018-09-01T04:33:32.910Z,100.00
2018-09-01T04:36:37.125Z,100.00
2018-09-01T04:39:41.337Z,100.00
2018-09-01T04:42:45.565Z,100.00
2018-09-01T04:45:49.788Z,100.00
2018-09-01T04:48:54.032Z,100.00
2018-09-01T04:51:58.257Z,100.00
2018-09-01T04:55:02.474Z,100.00
2018-09-01T04:58:06.696Z,100.00
2018-09-01T05:01:11.099Z,100.00
2018-09-01T05:04:15.167Z,100.00
2018-09-01T05:07:19.372Z,100.00
2018-09-01T05:10:23.589Z,100.00
2018-09-01T05:13:27.808Z,100.00
2018-09-01T05:16:32.086Z,100.00
2018-09-01T05:19:36.305Z,100.00
2018-09-01T05:22:40.568Z,100.00
2018-09-01T05:25:44.768Z,100.00
2018-09-01T05:28:49.037Z,100.00
2018-09-01T05:31:53.264Z,100.00
2018-09-01T05:34:57.579Z,100.00
2018-09-01T05:38:01.776Z,100.00
2018-09-01T05:41:06.193Z,100.00
2018-09-01T05:44:10.417Z,100.00
2018-09-01T05:47:14.621Z,100.00
2018-09-01T05:50:18.849Z,100.00
2018-09-01T05:53:23.154Z,100.00
2018-09-01T05:56:27.367Z,100.00
2018-09-01T05:59:32.181Z,100.00
2018-09-01T06:02:36.390Z,100.00
2018-09-01T06:05:40.621Z,100.00
2018-09-01T06:08:44.833Z,100.00
2018-09-01T06:11:49.081Z,100.00
2018-09-01T06:14:53.305Z,100.00
2018-09-01T06:17:57.637Z,100.00
2018-09-01T06:21:01.777Z,100.00
2018-09-01T06:24:06.415Z,100.00
2018-09-01T06:27:16.017Z,100.00
2018-09-01T06:30:26.141Z,100.00
2018-09-01T06:33:30.480Z,100.00
2018-09-01T06:36:34.837Z,100.00
2018-09-01T06:39:39.072Z,100.00
2018-09-01T06:42:43.324Z,100.00
2018-09-01T06:45:47.542Z,100.00
2018-09-01T06:48:52.024Z,100.00
2018-09-01T06:51:56.245Z,100.00
2018-09-01T06:55:00.444Z,100.00
2018-09-01T06:58:04.645Z,100.00
2018-09-01T07:01:08.882Z,100.00
2018-09-01T07:04:13.148Z,100.00
2018-09-01T07:07:17.356Z,100.00
2018-09-01T07:10:22.048Z,100.00
2018-09-01T07:13:26.266Z,100.00
2018-09-01T07:16:30.504Z,100.00
2018-09-01T07:19:34.738Z,100.00
2018-09-01T07:22:38.976Z,100.00
2018-09-01T07:25:43.194Z,100.00
2018-09-01T07:28:47.425Z,100.00
2018-09-01T07:31:51.645Z,100.00
2018-09-01T07:34:55.869Z,100.00
2018-09-01T07:38:00.109Z,100.00
2018-09-01T07:41:04.308Z,100.00
2018-09-01T07:44:08.534Z,100.00
2018-09-01T07:47:15.627Z,100.00
2018-09-01T07:50:20.193Z,100.00
2018-09-01T07:53:25.075Z,100.00
2018-09-01T07:56:29.633Z,100.00
2018-09-01T07:59:35.145Z,100.00
2018-09-01T08:02:39.875Z,100.00
2018-09-01T08:05:44.593Z,100.00
2018-09-01T08:08:49.757Z,100.00
2018-09-01T08:11:54.514Z,100.00
2018-09-01T08:14:58.793Z,100.00
2018-09-01T08:18:04.190Z,100.00
2018-09-01T08:21:09.129Z,100.00
2018-09-01T08:24:14.198Z,100.00
2018-09-01T08:27:18.612Z,100.00
2018-09-01T08:30:22.880Z,100.00
2018-09-01T08:33:27.164Z,100.00
2018-09-01T08:36:31.493Z,100.00
2018-09-01T08:39:35.706Z,100.00
2018-09-01T08:42:39.926Z,100.00
2018-09-01T08:45:44.152Z,100.00
2018-09-01T08:48:48.362Z,100.00
2018-09-01T08:51:52.600Z,100.00
2018-09-01T08:54:56.825Z,97.64
2018-09-01T08:58:01.065Z,95.18
2018-09-01T09:01:05.297Z,94.12
2018-09-01T09:04:09.521Z,94.02
2018-09-01T09:07:13.761Z,92.72
2018-09-01T09:10:17.985Z,92.63
2018-09-01T09:13:22.204Z,92.18
2018-09-01T09:16:26.433Z,90.22
2018-09-01T09:19:30.667Z,89.27
2018-09-01T09:22:35.212Z,86.48
2018-09-01T09:25:39.401Z,83.50
2018-09-01T09:28:43.613Z,82.27
2018-09-01T09:31:47.808Z,82.83
2018-09-01T09:34:52.021Z,81.21
2018-09-01T09:37:56.249Z,81.35
2018-09-01T09:41:00.477Z,81.91
2018-09-01T09:44:04.688Z,83.95
2018-09-01T09:47:08.901Z,83.08
2018-09-01T09:50:13.094Z,83.87
2018-09-01T09:53:17.309Z,82.83
2018-09-01T09:56:21.485Z,81.15
2018-09-01T09:59:25.716Z,81.33
2018-09-01T10:02:29.948Z,79.71
2018-09-01T10:05:34.217Z,79.37
2018-09-01T10:08:38.349Z,80.87
2018-09-01T10:11:43.285Z,82.39
2018-09-01T10:14:48.326Z,81.28
2018-09-01T10:17:52.513Z,77.49
2018-09-01T10:20:56.724Z,77.64
2018-09-01T10:24:00.929Z,77.55
2018-09-01T10:27:05.222Z,79.18
2018-09-01T10:30:09.338Z,79.18
2018-09-01T10:33:13.545Z,79.93
2018-09-01T10:36:17.751Z,79.43
2018-09-01T10:39:21.981Z,78.10
2018-09-01T10:42:26.169Z,75.83
2018-09-01T10:45:30.396Z,74.18
2018-09-01T10:48:34.598Z,76.36
2018-09-01T10:51:38.977Z,75.83
2018-09-01T10:54:43.185Z,76.99
2018-09-01T10:57:47.383Z,76.43
2018-09-01T11:00:51.595Z,75.67
2018-09-01T11:03:55.785Z,73.48
2018-09-01T11:06:59.987Z,73.03
2018-09-01T11:10:04.216Z,73.33
2018-09-01T11:13:08.447Z,71.99
2018-09-01T11:16:12.694Z,70.38
2018-09-01T11:19:16.896Z,72.52
2018-09-01T11:22:21.097Z,69.04
2018-09-01T11:25:25.284Z,68.67
2018-09-01T11:28:29.485Z,69.75
2018-09-01T11:31:33.701Z,71.23
2018-09-01T11:34:37.916Z,69.53
2018-09-01T11:37:42.110Z,69.01
2018-09-01T11:40:46.320Z,70.51
2018-09-01T11:43:50.549Z,68.12
2018-09-01T11:46:54.736Z,67.56
2018-09-01T11:49:58.932Z,70.65
2018-09-01T11:53:03.147Z,66.95
2018-09-01T11:56:07.337Z,66.71
2018-09-01T11:59:11.760Z,66.96
2018-09-01T12:02:15.989Z,65.64
2018-09-01T12:05:20.176Z,68.47
2018-09-01T12:08:24.352Z,67.90
2018-09-01T12:11:28.592Z,69.09
2018-09-01T12:14:32.797Z,68.16
2018-09-01T12:17:37.033Z,67.28
2018-09-01T12:20:41.318Z,65.79
2018-09-01T12:23:45.521Z,67.76
2018-09-01T12:26:49.729Z,66.17
2018-09-01T12:29:53.928Z,66.91
2018-09-01T12:32:58.121Z,66.79
2018-09-01T12:36:02.350Z,68.22
2018-09-01T12:39:06.988Z,66.38
2018-09-01T12:42:11.266Z,69.92
2018-09-01T12:45:15.453Z,69.18
2018-09-01T12:48:19.665Z,70.13
2018-09-01T12:51:23.881Z,68.61
2018-09-01T12:54:28.121Z,68.29
2018-09-01T12:57:32.323Z,67.26
2018-09-01T13:00:36.571Z,68.67
2018-09-01T13:03:40.725Z,66.54
2018-09-01T13:06:44.941Z,67.35
2018-09-01T13:09:49.193Z,67.69
2018-09-01T13:12:53.382Z,65.08
2018-09-01T13:15:57.607Z,60.53
2018-09-01T13:19:02.145Z,61.20
2018-09-01T13:22:06.397Z,62.18
2018-09-01T13:25:10.656Z,61.15
2018-09-01T13:28:14.844Z,61.89
2018-09-01T13:31:19.054Z,62.46
2018-09-01T13:34:23.300Z,65.93
2018-09-01T13:37:27.920Z,68.32
2018-09-01T13:40:32.156Z,65.85
2018-09-01T13:43:36.353Z,67.37
2018-09-01T13:46:40.577Z,66.54
2018-09-01T13:49:44.758Z,66.41
2018-09-01T13:52:48.968Z,67.76
2018-09-01T13:55:53.161Z,67.30
2018-09-01T13:58:57.348Z,66.84
2018-09-01T14:02:01.670Z,68.42
2018-09-01T14:05:05.892Z,68.98
2018-09-01T14:08:10.089Z,68.28
2018-09-01T14:11:14.276Z,68.87
2018-09-01T14:14:18.495Z,68.56
2018-09-01T14:17:22.699Z,68.49
2018-09-01T14:20:26.897Z,69.85
2018-09-01T14:23:31.101Z,68.00
2018-09-01T14:26:35.318Z,67.94
2018-09-01T14:29:39.512Z,68.48
2018-09-01T14:32:43.733Z,70.76
2018-09-01T14:35:47.947Z,69.96
2018-09-01T14:38:52.236Z,70.33
2018-09-01T14:41:56.406Z,68.07
2018-09-01T14:45:00.605Z,68.17
2018-09-01T14:48:04.817Z,65.83
2018-09-01T14:51:09.045Z,69.80
2018-09-01T14:54:16.933Z,69.15
2018-09-01T14:57:22.963Z,67.41
2018-09-01T15:00:28.376Z,68.44
2018-09-01T15:03:33.931Z,67.01
2018-09-01T15:06:39.251Z,67.13
2018-09-01T15:09:44.086Z,69.04
2018-09-01T15:12:50.229Z,69.26
2018-09-01T15:15:56.481Z,68.72
2018-09-01T15:19:01.928Z,68.85
2018-09-01T15:22:06.936Z,69.88
2018-09-01T15:25:13.403Z,70.75
2018-09-01T15:28:18.907Z,70.16
2018-09-01T15:31:25.016Z,70.87
2018-09-01T15:34:33.012Z,70.13
2018-09-01T15:37:38.564Z,70.50
2018-09-01T15:40:43.529Z,71.13
2018-09-01T15:43:50.444Z,71.81
2018-09-01T15:46:56.086Z,70.75
2018-09-01T15:50:01.017Z,69.42
2018-09-01T15:53:06.192Z,67.42
2018-09-01T15:56:10.944Z,65.08
2018-09-01T15:59:15.809Z,65.35
2018-09-01T16:02:27.384Z,62.31
2018-09-01T16:05:32.064Z,59.42
2018-09-01T16:08:36.301Z,57.75
2018-09-01T16:11:40.484Z,56.14
2018-09-01T16:14:44.681Z,57.29
2018-09-01T16:17:49.220Z,58.14
2018-09-01T16:20:53.451Z,58.91
2018-09-01T16:23:57.652Z,56.93
2018-09-01T16:27:01.871Z,57.30
2018-09-01T16:30:06.100Z,60.10
2018-09-01T16:33:10.313Z,60.23
2018-09-01T16:36:14.509Z,62.17
2018-09-01T16:39:18.715Z,62.70
2018-09-01T16:42:22.908Z,65.23
2018-09-01T16:45:27.102Z,66.27
2018-09-01T16:48:31.323Z,65.16
2018-09-01T16:51:35.534Z,65.00
2018-09-01T16:54:39.741Z,66.42
2018-09-01T16:57:44.008Z,66.55
2018-09-01T17:00:48.298Z,67.24
2018-09-01T17:03:52.436Z,68.43
2018-09-01T17:06:56.645Z,68.16
2018-09-01T17:10:00.853Z,70.32
2018-09-01T17:13:05.217Z,70.52
2018-09-01T17:16:09.445Z,70.77
2018-09-01T17:19:13.648Z,70.98
2018-09-01T17:22:17.873Z,71.39
2018-09-01T17:25:22.081Z,72.07
2018-09-01T17:28:26.359Z,72.33
2018-09-01T17:31:30.554Z,73.51
2018-09-01T17:34:34.771Z,73.68
2018-09-01T17:37:39.000Z,74.06
2018-09-01T17:40:43.205Z,74.78
2018-09-01T17:43:47.428Z,75.16
2018-09-01T17:46:51.596Z,76.25
2018-09-01T17:49:55.801Z,76.61
2018-09-01T17:52:59.987Z,76.88
2018-09-01T17:56:04.205Z,76.87
2018-09-01T17:59:08.400Z,77.97
2018-09-01T18:02:13.715Z,77.63
2018-09-01T18:05:17.865Z,77.84
2018-09-01T18:08:22.077Z,78.49
2018-09-01T18:11:26.276Z,78.59
2018-09-01T18:14:30.749Z,79.23
2018-09-01T18:17:34.945Z,79.62
2018-09-01T18:20:39.173Z,80.76
2018-09-01T18:23:43.373Z,80.85
2018-09-01T18:26:47.709Z,81.71
2018-09-01T18:29:51.896Z,81.32
2018-09-01T18:32:56.112Z,82.12
2018-09-01T18:36:00.330Z,81.74
2018-09-01T18:39:06.026Z,82.48
2018-09-01T18:42:10.225Z,82.37
2018-09-01T18:45:14.465Z,82.94
2018-09-01T18:48:18.665Z,82.39
2018-09-01T18:51:22.889Z,82.75
2018-09-01T18:54:27.097Z,83.51
2018-09-01T18:57:31.285Z,83.75
2018-09-01T19:00:35.501Z,84.18
2018-09-01T19:03:39.728Z,84.18
2018-09-01T19:06:43.957Z,84.47
2018-09-01T19:09:48.141Z,85.39
2018-09-01T19:12:52.372Z,85.47
2018-09-01T19:15:56.561Z,85.37
2018-09-01T19:19:00.769Z,85.64
2018-09-01T19:22:04.956Z,86.04
2018-09-01T19:25:09.366Z,86.12
2018-09-01T19:28:13.677Z,86.64
2018-09-01T19:31:17.909Z,86.18
2018-09-01T19:34:22.105Z,86.94
2018-09-01T19:37:26.313Z,87.08
2018-09-01T19:40:30.509Z,87.67
2018-09-01T19:43:34.732Z,87.32
2018-09-01T19:46:38.920Z,88.28
2018-09-01T19:49:43.124Z,88.70
2018-09-01T19:52:47.333Z,89.09
2018-09-01T19:55:51.547Z,89.22
2018-09-01T19:58:55.800Z,89.24
2018-09-01T20:02:00.382Z,89.45
2018-09-01T20:05:04.700Z,89.16
2018-09-01T20:08:08.858Z,89.35
2018-09-01T20:11:13.048Z,89.44
2018-09-01T20:14:17.236Z,89.38
2018-09-01T20:17:21.453Z,89.37
2018-09-01T20:20:25.657Z,89.81
2018-09-01T20:23:29.867Z,90.31
2018-09-01T20:26:34.081Z,90.01
2018-09-01T20:29:38.300Z,90.20
2018-09-01T20:32:42.516Z,90.63
2018-09-01T20:35:52.012Z,91.16
2018-09-01T20:38:56.233Z,90.83
2018-09-01T20:42:00.430Z,91.12
2018-09-01T20:45:04.729Z,92.16
2018-09-01T20:48:08.900Z,92.16
2018-09-01T20:51:13.117Z,91.77
2018-09-01T20:54:17.346Z,92.10
2018-09-01T20:57:21.542Z,92.61
2018-09-01T21:00:25.732Z,93.09
2018-09-01T21:03:29.907Z,93.28
2018-09-01T21:06:34.107Z,93.71
2018-09-01T21:09:38.329Z,93.93
2018-09-01T21:12:42.537Z,94.18
2018-09-01T21:15:46.724Z,94.36
2018-09-01T21:18:50.933Z,93.98
2018-09-01T21:21:55.138Z,94.36
2018-09-01T21:24:59.352Z,93.98
2018-09-01T21:28:03.652Z,94.76
2018-09-01T21:31:07.837Z,95.07
2018-09-01T21:34:12.074Z,94.81
2018-09-01T21:37:16.255Z,94.46
2018-09-01T21:40:20.467Z,94.92
2018-09-01T21:43:24.681Z,95.52
2018-09-01T21:46:28.901Z,95.45
2018-09-01T21:49:33.126Z,94.86
2018-09-01T21:52:37.356Z,95.16
2018-09-01T21:55:41.560Z,94.67
2018-09-01T21:58:45.775Z,94.99
2018-09-01T22:01:55.237Z,95.48
2018-09-01T22:05:04.637Z,95.72
2018-09-01T22:08:08.850Z,96.36
2018-09-01T22:11:13.067Z,95.72
2018-09-01T22:14:17.273Z,95.76
2018-09-01T22:17:22.160Z,96.41
2018-09-01T22:20:26.365Z,96.49
2018-09-01T22:23:30.569Z,97.10
2018-09-01T22:26:34.761Z,96.87
2018-09-01T22:29:39.016Z,97.27
2018-09-01T22:32:43.245Z,97.04
2018-09-01T22:35:47.448Z,97.52
2018-09-01T22:38:51.673Z,97.37
2018-09-01T22:41:55.887Z,96.54
2018-09-01T22:45:00.126Z,96.39
2018-09-01T22:48:04.355Z,96.70
2018-09-01T22:51:08.584Z,96.43
2018-09-01T22:54:12.778Z,96.59
2018-09-01T22:57:17.097Z,97.90
2018-09-01T23:00:21.317Z,97.17
2018-09-01T23:03:25.501Z,97.74
2018-09-01T23:06:29.697Z,97.08
2018-09-01T23:09:33.904Z,96.89
2018-09-01T23:12:38.533Z,97.99
2018-09-01T23:15:42.699Z,97.96
2018-09-01T23:18:46.919Z,97.75
2018-09-01T23:21:51.105Z,97.99
2018-09-01T23:24:55.332Z,98.40
2018-09-01T23:27:59.534Z,98.43
2018-09-01T23:31:03.789Z,98.45
2018-09-01T23:34:08.002Z,98.27
2018-09-01T23:37:12.210Z,98.85
2018-09-01T23:40:16.419Z,98.81
2018-09-01T23:43:20.645Z,98.92
2018-09-01T23:46:24.869Z,99.31
2018-09-01T23:49:29.105Z,99.37
2018-09-01T23:52:33.278Z,99.95
2018-09-01T23:55:37.505Z,98.92
2018-09-01T23:58:41.710Z,99.06
